Longfield, United Kingdom
Current Conditions -  °F | °C
As of 10:20 PM on Friday 24 Oct 2014 (Local Time) from EGLC Reporting Station
Rain Showers Rain Showers  
Wind Chill: 59°   Ceiling: Unl
Heat Index: 59°   Visibility: 6mi
Dew Point: 50°   Wind: 10mph
Humidity: 72%   Direction: 290°WNW
Pressure: 29.97"   Gusts: NA
Location:  51.4°N, 0.3°E
Report Text: EGLC 242120Z AUTO 29009KT 9999 -SHRA FEW012/// SCT018/// 15/10 Q1015 REDZ
Loading
Personal Weather Stations






























Interactive Weather Map
Tropical Storm Tracking
New forecast layout! Learn more

10-Day Weather Forecast

Advertisements
Track Severe Weather on mobile